Time;durP1;ratioP1;P1;durP2;ratioP2;P2;SDS_P1;SDS_P2;PMS_P1;PMS_P2;Temp;Humidity;BMP_temperature;BMP_pressure;BME280_temperature;BME280_humidity;BME280_pressure;Samples;Min_cycle;Max_cycle;Signal;HPM_P1;HPM_P2
2022/09/11 10:21:36;;;;;;;9.70;8.70;;;;;;;17.01;91.20;100347.45;1715666;79;21051;-81
2022/09/11 10:24:21;;;;;;;22.07;12.73;;;;;;;17.04;90.96;100353.38;1635501;86;21113;-80
2022/09/11 10:26:52;;;;;;;10.50;8.45;;;;;;;17.05;90.78;100349.81;1634904;86;21080;-80
2022/09/11 10:29:26;;;;;;;9.83;7.55;;;;;;;17.04;90.57;100352.06;1600678;88;21737;-81
2022/09/11 10:32:05;;;;;;;17.73;10.38;;;;;;;17.02;90.52;100352.66;1581385;89;21039;-90
2022/09/11 10:34:38;;;;;;;9.75;7.62;;;;;;;17.05;90.51;100356.91;1578493;89;21079;-78
2022/09/11 10:37:16;;;;;;;6.83;6.12;;;;;;;17.09;90.41;100350.45;1582193;89;21062;-85
2022/09/11 10:39:46;;;;;;;7.20;6.60;;;;;;;17.22;90.69;100351.36;1599389;87;21051;-85
2022/09/11 10:42:27;;;;;;;9.18;8.23;;;;;;;17.46;91.25;100362.14;1603086;87;22004;-78
2022/09/11 10:45:01;;;;;;;7.00;6.30;;;;;;;17.69;91.41;100350.00;1600793;87;21119;-78
2022/09/11 10:47:32;;;;;;;7.85;7.05;;;;;;;17.84;90.92;100359.58;1590357;88;21064;-79
2022/09/11 10:50:23;;;;;;;8.40;7.53;;;;;;;17.92;90.40;100361.72;1596965;88;21115;-79
2022/09/11 10:53:13;;;;;;;7.55;6.17;;;;;;;17.92;89.89;100367.02;1594923;87;21551;-79
2022/09/11 10:55:53;;;;;;;6.83;5.42;;;;;;;17.87;89.32;100373.59;1561907;89;21136;-79
2022/09/11 10:58:26;;;;;;;7.78;6.97;;;;;;;17.76;88.91;100369.85;1598623;87;21079;-82
2022/09/11 11:00:53;;;;;;;13.53;12.13;;;;;;;17.69;88.93;100366.38;1603401;88;21065;-83
2022/09/11 11:03:25;;;;;;;18.65;12.75;;;;;;;17.60;88.89;100362.55;1594235;88;21498;-80
2022/09/11 11:06:24;;;;;;;39.95;20.02;;;;;;;17.54;88.81;100374.86;1596177;88;21079;-83
2022/09/11 11:09:09;;;;;;;;;;;;;;;17.45;88.89;100372.35;1606048;87;21132;-80
2022/09/11 11:12:04;;;;;;;42.25;19.52;;;;;;;17.42;89.13;100374.36;1568584;89;20216;-92
2022/09/11 11:15:01;;;;;;;23.07;12.58;;;;;;;17.43;89.34;100376.05;1593350;89;21142;-80
2022/09/11 11:18:13;;;;;;;13.18;8.60;;;;;;;17.47;89.95;100382.38;1613389;88;21037;-79
2022/09/11 11:21:02;;;;;;;9.30;7.28;;;;;;;17.49;89.76;100379.16;1586191;87;21298;-78
2022/09/11 11:23:53;;;;;;;7.87;6.55;;;;;;;17.44;89.54;100379.94;1579168;88;21147;-79
2022/09/11 11:26:49;;;;;;;9.58;7.30;;;;;;;17.37;89.44;100383.92;1556371;90;21034;-81
2022/09/11 11:29:27;;;;;;;17.10;10.50;;;;;;;17.27;89.12;100387.67;1622689;87;21508;-79
2022/09/11 11:32:06;;;;;;;21.57;14.47;;;;;;;17.21;89.92;100389.84;1572901;89;21112;-81
2022/09/11 11:35:00;;;;;;;30.15;16.62;;;;;;;17.12;90.33;100396.11;1549667;91;21069;-77
2022/09/11 11:37:36;;;;;;;13.85;11.38;;;;;;;17.04;90.20;100398.88;1570766;88;21337;-77
2022/09/11 11:40:22;;;;;;;11.05;8.88;;;;;;;16.92;90.45;100401.84;1598276;88;21054;-80
2022/09/11 11:43:05;;;;;;;11.60;9.70;;;;;;;16.86;90.56;100402.23;1604277;88;22041;-81
2022/09/11 11:45:54;;;;;;;34.92;14.98;;;;;;;16.81;91.04;100411.78;1613314;88;21028;-81
2022/09/11 11:48:30;;;;;;;26.27;13.70;;;;;;;16.78;91.09;100413.30;1615579;88;21052;-79
2022/09/11 11:51:08;;;;;;;30.70;18.37;;;;;;;16.78;91.44;100406.69;1592244;89;21309;-79
2022/09/11 11:53:44;;;;;;;16.67;11.75;;;;;;;16.80;91.86;100411.90;1607589;88;21459;-81
2022/09/11 11:56:34;;;;;;;10.48;8.85;;;;;;;16.83;91.88;100406.41;1625788;87;21512;-81
2022/09/11 11:59:17;;;;;;;10.78;7.17;;;;;;;16.89;92.32;100408.66;1581044;90;21065;-81
2022/09/11 12:02:09;;;;;;;9.83;7.53;;;;;;;16.99;92.18;100407.14;1594252;89;21458;-80
2022/09/11 12:04:48;;;;;;;9.43;7.42;;;;;;;17.17;92.43;100410.39;1603316;89;21137;-80
2022/09/11 12:07:30;;;;;;;8.98;7.12;;;;;;;17.47;92.49;100414.18;1595764;89;21068;-81
2022/09/11 12:10:00;;;;;;;22.40;15.63;;;;;;;17.80;92.13;100414.27;1597697;89;21069;-82
2022/09/11 12:12:32;;;;;;;7.87;6.10;;;;;;;18.12;91.50;100403.27;1592145;89;21537;-81
2022/09/11 12:15:09;;;;;;;5.20;4.67;;;;;;;18.39;90.92;100407.99;1596682;89;21085;-82
2022/09/11 12:17:38;;;;;;;12.58;5.90;;;;;;;18.80;90.39;100404.75;1599053;89;21078;-81
2022/09/11 12:20:32;;;;;;;7.72;6.25;;;;;;;19.02;89.59;100408.05;1600299;89;25541;-82
2022/09/11 12:23:00;;;;;;;4.35;3.95;;;;;;;19.10;88.76;100400.38;1602667;88;21068;-80
2022/09/11 12:25:35;;;;;;;8.63;6.55;;;;;;;19.22;88.15;100408.77;1620209;88;21045;-79
2022/09/11 12:28:22;;;;;;;11.00;8.48;;;;;;;19.30;86.92;100414.38;1616406;88;21036;-81
2022/09/11 12:31:06;;;;;;;7.50;5.30;;;;;;;19.36;86.30;100412.58;1598667;88;21576;-80
2022/09/11 12:33:47;;;;;;;5.65;4.65;;;;;;;19.41;85.75;100406.94;1597719;89;21074;-80
2022/09/11 12:36:35;;;;;;;8.05;5.20;;;;;;;19.39;85.19;100406.20;1597793;89;21520;-80
2022/09/11 12:39:07;;;;;;;13.55;6.95;;;;;;;19.38;84.70;100405.84;1627277;87;21072;-80
2022/09/11 12:41:36;;;;;;;6.17;4.37;;;;;;;19.29;84.10;100407.38;1622829;87;21032;-80
2022/09/11 12:44:06;;;;;;;9.40;4.87;;;;;;;19.19;83.75;100410.32;1609021;88;21167;-80
2022/09/11 12:46:48;;;;;;;4.00;3.42;;;;;;;19.09;83.62;100407.50;1610092;88;21081;-80
2022/09/11 12:49:18;;;;;;;6.78;4.95;;;;;;;19.07;83.65;100405.91;1613217;88;21073;-80
2022/09/11 12:51:55;;;;;;;5.25;4.45;;;;;;;19.04;83.67;100410.09;1620495;87;21075;-79
2022/09/11 12:54:39;;;;;;;6.45;5.05;;;;;;;18.97;83.28;100408.38;1608008;88;21038;-80
2022/09/11 12:57:20;;;;;;;5.17;4.65;;;;;;;18.90;83.30;100408.42;1613424;88;21080;-79
2022/09/11 12:59:58;;;;;;;5.05;4.55;;;;;;;18.87;83.28;100410.86;1601314;88;21057;-82
2022/09/11 13:02:46;;;;;;;7.58;5.95;;;;;;;18.82;82.79;100414.31;1622053;88;21059;-82
2022/09/11 13:05:43;;;;;;;6.55;5.35;;;;;;;18.79;82.93;100411.88;1624411;87;21456;-81
2022/09/11 13:08:21;;;;;;;11.70;7.97;;;;;;;18.90;83.27;100414.61;1616385;88;21253;-82
2022/09/11 13:10:49;;;;;;;8.05;6.72;;;;;;;19.23;83.49;100420.23;1622002;88;21154;-81
2022/09/11 13:13:57;;;;;;;11.03;8.05;;;;;;;19.40;83.22;100418.55;1623531;87;21086;-81
2022/09/11 13:16:33;;;;;;;6.22;5.60;;;;;;;19.58;83.33;100416.32;1581848;88;21089;-80
2022/09/11 13:19:19;;;;;;;6.05;5.45;;;;;;;19.76;82.77;100420.31;1601478;87;21071;-79
2022/09/11 13:21:48;;;;;;;6.12;5.28;;;;;;;19.79;82.21;100413.91;1565929;89;21118;-81
2022/09/11 13:24:27;;;;;;;9.33;6.28;;;;;;;19.74;81.33;100418.72;1598438;88;21096;-79
2022/09/11 13:27:07;;;;;;;10.90;6.40;;;;;;;19.73;81.50;100417.88;1569402;89;21067;-83
2022/09/11 13:29:38;;;;;;;9.50;6.33;;;;;;;19.76;81.59;100420.31;1549682;90;25762;-84
2022/09/11 13:32:10;;;;;;;10.95;7.12;;;;;;;19.77;81.39;100418.48;1568276;89;21137;-81
2022/09/11 13:34:46;;;;;;;6.95;5.70;;;;;;;19.79;81.27;100413.91;1568885;89;21084;-79
2022/09/11 13:37:30;;;;;;;6.60;5.40;;;;;;;19.73;80.65;100419.67;1569229;89;21091;-80
2022/09/11 13:40:00;;;;;;;9.05;6.17;;;;;;;19.64;80.56;100411.87;1567698;89;21131;-81
2022/09/11 13:42:29;;;;;;;8.13;6.58;;;;;;;19.64;80.62;100413.69;1567715;89;21105;-81
2022/09/11 13:45:00;;;;;;;8.05;6.28;;;;;;;19.61;80.55;100408.11;1569309;89;21027;-80
2022/09/11 13:47:34;;;;;;;6.85;6.15;;;;;;;19.65;80.97;100412.25;1568304;89;21108;-81
2022/09/11 13:50:07;;;;;;;6.85;6.00;;;;;;;19.74;80.82;100408.92;1567798;90;21958;-80
2022/09/11 13:52:35;;;;;;;7.78;6.97;;;;;;;19.77;80.42;100413.17;1569761;90;21072;-80
2022/09/11 13:55:10;;;;;;;17.32;13.50;;;;;;;19.73;80.40;100406.37;1571495;90;21126;-80
2022/09/11 13:58:00;;;;;;;10.18;7.30;;;;;;;19.68;80.32;100408.55;1566928;89;21070;-80
2022/09/11 14:00:43;;;;;;;10.93;8.25;;;;;;;19.57;80.00;100415.97;1543982;91;21111;-79
2022/09/11 14:03:27;;;;;;;20.10;12.53;;;;;;;19.44;79.88;100421.81;1579093;88;39295;-79
2022/09/11 14:05:59;;;;;;;13.60;11.73;;;;;;;19.27;79.80;100409.77;1622050;87;21044;-79
2022/09/11 14:08:34;;;;;;;27.05;20.17;;;;;;;19.13;79.77;100414.77;1621127;87;21067;-79
2022/09/11 14:11:09;;;;;;;34.33;23.38;;;;;;;19.00;79.86;100412.12;1612476;88;21573;-79
2022/09/11 14:14:00;;;;;;;50.55;33.80;;;;;;;18.92;79.93;100416.66;1619859;88;21008;-77
2022/09/11 14:16:35;;;;;;;34.40;24.07;;;;;;;18.87;80.33;100416.16;1621195;87;21509;-81
2022/09/11 14:19:17;;;;;;;29.15;15.40;;;;;;;18.77;80.31;100411.13;1621511;87;21013;-82
2022/09/11 14:21:48;;;;;;;15.65;9.78;;;;;;;18.68;80.36;100410.43;1621240;87;21104;-81
2022/09/11 14:24:37;;;;;;;25.25;12.68;;;;;;;18.60;80.32;100424.72;1626179;87;21063;-80
2022/09/11 14:27:31;;;;;;;;;;;;;;;18.49;80.48;100422.81;1654876;85;21051;-79
2022/09/11 14:29:59;;;;;;;12.45;7.97;;;;;;;18.42;80.59;100420.20;1629898;85;21131;-81
2022/09/11 14:32:38;;;;;;;12.05;7.45;;;;;;;18.33;80.66;100419.04;1627084;87;21032;-79
2022/09/11 14:35:10;;;;;;;10.72;7.62;;;;;;;18.26;80.62;100424.38;1592888;89;21063;-81
2022/09/11 14:37:44;;;;;;;17.25;11.03;;;;;;;18.20;80.88;100420.34;1599213;88;21063;-79
2022/09/11 14:40:18;;;;;;;18.23;11.45;;;;;;;18.16;81.10;100416.70;1603459;88;21204;-80
2022/09/11 14:42:46;;;;;;;20.20;12.28;;;;;;;18.15;81.24;100418.97;1593462;90;22064;-78
2022/09/11 14:45:24;;;;;;;16.75;10.60;;;;;;;18.13;81.41;100422.22;1614140;88;20951;-79
2022/09/11 14:47:52;;;;;;;19.17;11.45;;;;;;;18.10;81.39;100415.32;1629465;87;21055;-80
2022/09/11 14:50:23;;;;;;;10.50;8.38;;;;;;;18.11;81.42;100417.48;1621888;87;21063;-79
2022/09/11 14:52:50;;;;;;;;;;;;;;;18.12;81.60;100413.39;1630829;87;21331;-77
2022/09/11 14:55:19;;;;;;;21.93;11.97;;;;;;;18.13;81.69;100416.92;1624864;87;21303;-78
2022/09/11 14:57:46;;;;;;;24.43;12.98;;;;;;;18.12;81.72;100416.05;1602498;88;21444;-77
2022/09/11 15:00:17;;;;;;;17.30;10.63;;;;;;;18.11;81.73;100413.03;1587183;88;21094;-79
2022/09/11 15:02:46;;;;;;;11.75;7.95;;;;;;;18.09;81.58;100413.60;1622610;87;21018;-79
2022/09/11 15:05:21;;;;;;;21.85;11.60;;;;;;;18.08;81.64;100413.72;1626977;87;21068;-80
2022/09/11 15:07:51;;;;;;;13.28;8.70;;;;;;;18.05;81.92;100416.11;1621387;87;22070;-80
2022/09/11 15:10:19;;;;;;;12.98;7.90;;;;;;;17.98;81.70;100413.00;1627467;87;21094;-79
2022/09/11 15:12:47;;;;;;;8.23;5.75;;;;;;;17.95;81.80;100413.70;1628692;88;21099;-83
2022/09/11 15:15:18;;;;;;;15.10;8.13;;;;;;;17.91;81.48;100422.83;1627725;87;21060;-80
2022/09/11 15:17:48;;;;;;;15.80;8.95;;;;;;;17.88;81.36;100427.02;1629947;88;21480;-77
2022/09/11 15:20:19;;;;;;;12.65;7.75;;;;;;;17.90;81.63;100426.41;1625707;88;21205;-78
2022/09/11 15:22:52;;;;;;;16.93;8.90;;;;;;;17.93;81.58;100430.17;1624721;87;21056;-77
2022/09/11 15:25:19;;;;;;;11.33;5.92;;;;;;;17.96;81.46;100428.67;1583931;89;21095;-81
2022/09/11 15:27:51;;;;;;;10.63;6.17;;;;;;;18.00;81.35;100431.00;1581471;89;21096;-81
2022/09/11 15:30:20;;;;;;;7.75;5.20;;;;;;;18.04;81.33;100430.30;1612628;87;21291;-80
2022/09/11 15:32:49;;;;;;;10.15;5.47;;;;;;;18.06;80.87;100435.03;1579601;89;21192;-81
2022/09/11 15:35:17;;;;;;;4.78;3.42;;;;;;;18.06;80.53;100439.02;1598926;88;21155;-81
2022/09/11 15:37:48;;;;;;;8.18;4.90;;;;;;;18.05;80.37;100444.80;1601181;89;20969;-80
2022/09/11 15:40:18;;;;;;;14.30;8.00;;;;;;;18.03;80.18;100441.88;1610385;89;20960;-80
2022/09/11 15:42:48;;;;;;;5.35;3.95;;;;;;;18.00;80.00;100440.28;1609925;88;21546;-81
2022/09/11 15:45:17;;;;;;;8.65;5.15;;;;;;;18.00;79.97;100439.44;1610219;89;21319;-80
2022/09/11 15:47:46;;;;;;;6.42;4.78;;;;;;;17.99;79.91;100438.59;1594829;89;21028;-83
2022/09/11 15:50:17;;;;;;;8.20;5.22;;;;;;;17.96;79.77;100441.45;1605313;89;21056;-82
2022/09/11 15:52:42;;;;;;;7.40;4.90;;;;;;;17.96;79.85;100448.56;1637944;86;21029;-80
2022/09/11 15:55:09;;;;;;;6.47;4.28;;;;;;;17.97;79.86;100449.77;1611238;89;21493;-78
2022/09/11 15:57:38;;;;;;;7.53;4.75;;;;;;;18.00;79.75;100448.23;1609091;89;21228;-82
2022/09/11 16:00:11;;;;;;;49.93;30.20;;;;;;;18.02;79.80;100453.45;1605736;89;21525;-84
2022/09/11 16:02:42;;;;;;;11.18;8.08;;;;;;;18.03;79.79;100448.50;1610183;88;21123;-80
2022/09/11 16:05:10;;;;;;;12.55;10.43;;;;;;;18.06;79.91;100451.79;1608671;89;21063;-84
2022/09/11 16:07:37;;;;;;;17.42;14.33;;;;;;;18.11;79.96;100449.33;1642339;87;21093;-84
2022/09/11 16:10:13;;;;;;;5.92;5.17;;;;;;;18.12;79.97;100453.66;1640157;87;21190;-80
2022/09/11 16:12:58;;;;;;;43.68;16.17;;;;;;;18.11;79.86;100451.97;1640849;87;21530;-80
2022/09/11 16:15:29;;;;;;;16.17;8.75;;;;;;;18.08;79.89;100449.53;1604049;89;21129;-80
2022/09/11 16:17:56;;;;;;;7.47;4.97;;;;;;;18.04;79.97;100455.50;1612299;88;21512;-82
2022/09/11 16:20:24;;;;;;;16.10;9.00;;;;;;;17.99;79.69;100453.66;1609024;88;21042;-79
2022/09/11 16:22:53;;;;;;;6.05;5.30;;;;;;;17.93;79.84;100454.92;1609595;89;21169;-79
2022/09/11 16:25:21;;;;;;;8.93;6.15;;;;;;;17.88;79.88;100461.00;1655783;85;21039;-79
2022/09/11 16:27:51;;;;;;;6.92;5.37;;;;;;;17.84;80.02;100462.14;1628525;87;21058;-78
2022/09/11 16:30:19;;;;;;;9.48;6.08;;;;;;;17.79;79.95;100465.56;1606085;87;21043;-80
2022/09/11 16:32:47;;;;;;;6.15;5.00;;;;;;;17.72;80.02;100457.15;1600569;87;21047;-79
2022/09/11 16:35:16;;;;;;;7.22;5.03;;;;;;;17.68;80.12;100459.64;1631113;86;21159;-78
2022/09/11 16:37:43;;;;;;;6.03;5.30;;;;;;;17.63;80.38;100463.06;1631056;86;21043;-81
2022/09/11 16:40:10;;;;;;;14.83;9.70;;;;;;;17.61;80.58;100467.61;1576948;89;21490;-81
2022/09/11 16:42:38;;;;;;;9.63;6.92;;;;;;;17.58;80.78;100466.00;1596779;89;21064;-81
2022/09/11 16:45:05;;;;;;;8.88;6.00;;;;;;;17.54;80.90;100464.52;1601367;87;21317;-79
2022/09/11 16:47:34;;;;;;;8.85;6.12;;;;;;;17.50;81.06;100459.51;1589813;89;21981;-81
2022/09/11 16:50:01;;;;;;;9.45;6.40;;;;;;;17.48;81.40;100467.55;1594510;87;21109;-80
2022/09/11 16:52:29;;;;;;;7.92;6.22;;;;;;;17.44;81.46;100470.03;1597354;88;21033;-80
2022/09/11 16:55:03;;;;;;;7.87;6.17;;;;;;;17.41;81.64;100467.58;1579875;89;21069;-82
2022/09/11 16:57:39;;;;;;;7.80;6.00;;;;;;;17.39;81.73;100465.02;1599382;88;21107;-82
2022/09/11 17:00:09;;;;;;;8.20;6.00;;;;;;;17.37;81.80;100458.11;1596273;89;21239;-82
2022/09/11 17:02:38;;;;;;;10.88;7.03;;;;;;;17.34;81.95;100460.96;1621473;87;21091;-81
2022/09/11 17:05:11;;;;;;;25.52;20.50;;;;;;;17.31;81.94;100455.86;1607090;87;21019;-80
2022/09/11 17:07:40;;;;;;;34.20;29.92;;;;;;;17.28;82.17;100460.88;1602808;87;22155;-80
2022/09/11 17:10:09;;;;;;;11.45;9.93;;;;;;;17.26;82.29;100460.60;1604525;87;21284;-80
2022/09/11 17:12:37;;;;;;;22.37;16.82;;;;;;;17.23;82.33;100460.32;1604577;87;21099;-79
2022/09/11 17:15:06;;;;;;;12.53;9.00;;;;;;;17.18;82.29;100466.38;1604484;87;21052;-79
2022/09/11 17:17:36;;;;;;;27.93;14.25;;;;;;;17.14;82.58;100463.56;1604884;87;21103;-80
2022/09/11 17:20:05;;;;;;;20.80;12.98;;;;;;;17.12;82.75;100468.09;1604688;87;20982;-84
2022/09/11 17:22:35;;;;;;;43.95;22.75;;;;;;;17.07;82.77;100468.41;1604799;87;21497;-82
2022/09/11 17:25:04;;;;;;;24.02;14.10;;;;;;;17.05;82.91;100467.65;1596797;89;21204;-80
2022/09/11 17:27:31;;;;;;;23.83;12.95;;;;;;;17.02;83.05;100472.30;1547821;89;21074;-81
2022/09/11 17:29:59;;;;;;;29.55;15.68;;;;;;;16.99;83.09;100471.13;1544786;91;21047;-81
2022/09/11 17:32:27;;;;;;;15.55;10.60;;;;;;;16.95;83.25;100471.33;1568038;89;21047;-79
2022/09/11 17:34:54;;;;;;;14.93;9.88;;;;;;;16.92;83.41;100472.84;1573003;89;21058;-81
2022/09/11 17:37:25;;;;;;;15.93;9.58;;;;;;;16.90;83.65;100473.44;1572905;91;21280;-79
2022/09/11 17:39:54;;;;;;;40.50;20.02;;;;;;;16.87;83.65;100477.58;1573079;89;21075;-80
2022/09/11 17:42:29;;;;;;;21.70;12.10;;;;;;;16.85;83.71;100474.20;1572922;89;21088;-81
2022/09/11 17:45:00;;;;;;;16.97;10.35;;;;;;;16.82;83.78;100475.72;1572650;89;21078;-79
2022/09/11 17:47:32;;;;;;;13.80;9.63;;;;;;;16.82;84.07;100478.80;1573149;89;21107;-80
2022/09/11 17:50:03;;;;;;;13.38;8.43;;;;;;;16.80;84.29;100480.72;1557917;90;22158;-79
2022/09/11 17:52:33;;;;;;;11.78;7.65;;;;;;;16.79;84.20;100484.30;1572806;89;21102;-79
2022/09/11 17:55:00;;;;;;;21.10;12.50;;;;;;;16.76;84.16;100488.42;1572989;89;21476;-79
2022/09/11 17:57:27;;;;;;;14.58;9.43;;;;;;;16.72;84.24;100488.61;1572953;89;21071;-79
2022/09/11 17:59:55;;;;;;;11.18;7.45;;;;;;;16.70;84.41;100489.66;1573037;89;21031;-79
2022/09/11 18:02:24;;;;;;;13.08;7.90;;;;;;;16.67;84.34;100486.72;1572846;90;21171;-78
2022/09/11 18:04:51;;;;;;;11.55;7.05;;;;;;;16.64;84.41;100484.73;1547651;91;21059;-79
2022/09/11 18:07:18;;;;;;;13.30;7.58;;;;;;;16.61;84.47;100484.92;1576266;89;21061;-78
2022/09/11 18:09:47;;;;;;;8.50;6.55;;;;;;;16.60;84.62;100493.79;1585716;89;21033;-79
2022/09/11 18:12:14;;;;;;;14.60;8.40;;;;;;;16.57;84.71;100496.18;1588970;89;21070;-78
2022/09/11 18:14:44;;;;;;;17.40;10.63;;;;;;;16.53;84.69;100494.64;1591848;89;21131;-79
2022/09/11 18:17:12;;;;;;;28.65;15.28;;;;;;;16.48;84.69;100497.55;1585393;89;21006;-78
2022/09/11 18:19:39;;;;;;;32.05;17.15;;;;;;;16.42;84.78;100492.64;1591529;89;21069;-79
2022/09/11 18:22:09;;;;;;;18.52;10.90;;;;;;;16.40;85.00;100503.78;1591907;89;21054;-79
2022/09/11 18:24:37;;;;;;;16.10;10.90;;;;;;;16.38;85.09;100504.81;1607475;87;21631;-79
2022/09/11 18:27:05;;;;;;;13.18;8.75;;;;;;;16.31;85.05;100506.98;1625778;87;21230;-78
2022/09/11 18:29:34;;;;;;;8.33;6.83;;;;;;;16.26;85.13;100506.39;1623456;87;21011;-79
2022/09/11 18:32:02;;;;;;;11.30;8.15;;;;;;;16.21;85.11;100505.81;1623516;88;21063;-79
2022/09/11 18:34:30;;;;;;;8.93;6.75;;;;;;;16.15;85.27;100503.53;1621821;88;20960;-79
2022/09/11 18:36:57;;;;;;;6.83;6.12;;;;;;;16.10;85.31;100509.55;1626755;88;21056;-79
2022/09/11 18:39:30;;;;;;;7.65;6.10;;;;;;;16.04;85.28;100510.28;1625384;87;21989;-78
2022/09/11 18:41:58;;;;;;;7.05;5.78;;;;;;;15.96;85.38;100513.88;1624003;88;21083;-79
2022/09/11 18:44:28;;;;;;;7.47;5.90;;;;;;;15.79;85.32;100518.77;1624185;87;20921;-79
2022/09/11 18:46:57;;;;;;;8.13;6.47;;;;;;;15.79;85.32;100518.77;1620985;88;20944;-79
2022/09/11 18:49:26;;;;;;;;;;;;;;;15.67;85.25;100518.60;1627745;87;21008;-79
2022/09/11 18:52:03;;;;;;;6.97;6.03;;;;;;;15.55;85.50;100518.36;1615055;88;21169;-81
2022/09/11 18:54:37;;;;;;;8.83;6.85;;;;;;;15.44;85.48;100520.74;1621309;88;21015;-79
2022/09/11 18:57:04;;;;;;;9.15;7.03;;;;;;;15.34;85.60;100518.22;1620325;88;21042;-79
2022/09/11 18:59:32;;;;;;;8.90;6.40;;;;;;;15.27;85.91;100524.31;1616017;88;21113;-78
2022/09/11 19:02:01;;;;;;;10.28;7.67;;;;;;;15.21;86.17;100517.17;1622842;87;21067;-78
2022/09/11 19:04:30;;;;;;;11.68;6.97;;;;;;;15.13;86.11;100521.55;1621674;87;21144;-79
2022/09/11 19:07:00;;;;;;;8.90;6.75;;;;;;;15.07;86.88;100528.01;1622877;88;21040;-80
2022/09/11 19:09:33;;;;;;;7.10;6.40;;;;;;;15.07;86.88;100528.01;1622943;88;21600;-81
2022/09/11 19:12:07;;;;;;;9.00;6.47;;;;;;;15.00;86.85;100528.44;1624341;88;21044;-80
2022/09/11 19:14:34;;;;;;;7.62;6.05;;;;;;;14.93;87.22;100526.58;1626194;88;21064;-81
2022/09/11 19:17:03;;;;;;;9.88;7.75;;;;;;;14.93;87.22;100526.58;1616535;88;22063;-79
2022/09/11 19:19:32;;;;;;;9.90;7.78;;;;;;;14.88;87.60;100520.68;1621382;88;21065;-81
2022/09/11 19:21:59;;;;;;;9.03;7.12;;;;;;;14.87;87.77;100524.27;1620651;88;21099;-82
2022/09/11 19:24:28;;;;;;;7.55;6.65;;;;;;;14.81;87.50;100518.84;1624908;87;21090;-81
2022/09/11 19:26:58;;;;;;;7.80;6.00;;;;;;;14.76;87.61;100530.11;1625235;87;21488;-81
2022/09/11 19:29:26;;;;;;;10.60;7.67;;;;;;;14.67;87.34;100530.12;1622808;87;21289;-81
2022/09/11 19:31:54;;;;;;;9.48;6.60;;;;;;;14.61;87.48;100532.23;1627942;88;21511;-80
2022/09/11 19:34:23;;;;;;;9.75;7.65;;;;;;;14.55;87.65;100532.09;1624375;87;21589;-81
2022/09/11 19:36:51;;;;;;;11.75;7.42;;;;;;;14.49;87.73;100537.19;1624696;87;21107;-79
2022/09/11 19:39:20;;;;;;;8.18;7.37;;;;;;;14.44;87.92;100533.08;1626620;87;21084;-80
2022/09/11 19:41:55;;;;;;;10.53;7.33;;;;;;;14.42;88.26;100534.45;1625770;87;21149;-79
2022/09/11 19:44:24;;;;;;;12.82;9.25;;;;;;;14.41;88.46;100538.48;1627394;87;21751;-81
2022/09/11 19:46:54;;;;;;;10.82;7.65;;;;;;;14.36;88.69;100540.05;1626874;87;21063;-81
2022/09/11 19:49:22;;;;;;;14.70;11.85;;;;;;;14.36;88.80;100542.69;1628511;87;21035;-81
2022/09/11 19:51:52;;;;;;;24.72;18.40;;;;;;;14.34;89.13;100546.33;1623898;87;21028;-79
2022/09/11 19:54:21;;;;;;;13.00;10.80;;;;;;;14.37;89.69;100546.17;1637861;86;21525;-81
2022/09/11 19:56:51;;;;;;;19.35;13.58;;;;;;;14.40;89.88;100548.65;1625055;87;21012;-81
2022/09/11 19:59:19;;;;;;;16.48;14.13;;;;;;;14.39;90.07;100545.16;1656484;86;21518;-81
2022/09/11 20:01:49;;;;;;;14.30;10.70;;;;;;;14.42;90.33;100547.64;1654224;86;21081;-79
2022/09/11 20:04:17;;;;;;;14.55;11.63;;;;;;;14.45;90.70;100547.48;1657254;86;21066;-81
2022/09/11 20:06:45;;;;;;;13.60;10.28;;;;;;;14.49;90.76;100551.69;1626140;87;21158;-81
2022/09/11 20:09:12;;;;;;;11.25;8.73;;;;;;;14.51;90.85;100553.76;1658777;85;21060;-79
2022/09/11 20:11:40;;;;;;;12.28;9.60;;;;;;;14.55;91.01;100561.11;1658785;86;21044;-79
2022/09/11 20:14:07;;;;;;;10.93;9.43;;;;;;;14.57;91.04;100554.41;1609756;86;21120;-79
2022/09/11 20:16:34;;;;;;;12.45;9.65;;;;;;;14.59;91.10;100557.36;1598877;88;21059;-79
2022/09/11 20:19:05;;;;;;;9.50;8.50;;;;;;;14.61;91.10;100552.02;1600130;88;21934;-79
2022/09/11 20:21:33;;;;;;;10.97;8.37;;;;;;;14.62;90.92;100554.56;1601675;88;21016;-78
2022/09/11 20:24:00;;;;;;;9.13;7.87;;;;;;;14.63;91.09;100554.09;1602953;87;21064;-78
2022/09/11 20:26:30;;;;;;;9.85;7.83;;;;;;;14.65;90.99;100554.88;1601926;87;21309;-77
2022/09/11 20:29:00;;;;;;;10.00;7.72;;;;;;;14.63;90.73;100558.93;1601252;88;21474;-78
2022/09/11 20:31:31;;;;;;;9.60;7.15;;;;;;;14.63;90.83;100560.25;1602458;88;21153;-78
2022/09/11 20:33:58;;;;;;;7.92;7.12;;;;;;;14.63;90.74;100562.00;1602929;87;21090;-77
2022/09/11 20:36:28;;;;;;;9.20;7.00;;;;;;;14.61;90.87;100556.83;1601897;87;21118;-78
2022/09/11 20:38:58;;;;;;;8.60;6.50;;;;;;;14.62;90.73;100559.84;1631030;88;21095;-78
2022/09/11 20:41:28;;;;;;;7.12;6.22;;;;;;;14.63;90.79;100561.56;1601079;88;21135;-77
2022/09/11 20:43:58;;;;;;;8.60;6.83;;;;;;;14.64;90.84;100567.69;1601021;88;21342;-78
2022/09/11 20:46:26;;;;;;;7.00;6.10;;;;;;;14.65;90.95;100562.79;1630862;87;21043;-77
2022/09/11 20:48:54;;;;;;;9.45;6.37;;;;;;;14.67;91.03;100571.48;1602058;88;21604;-78
2022/09/11 20:51:22;;;;;;;7.08;5.47;;;;;;;14.68;91.06;100568.75;1601008;88;20948;-78
2022/09/11 20:53:50;;;;;;;6.78;5.80;;;;;;;14.71;91.15;100575.22;1601807;88;21056;-78
2022/09/11 20:56:22;;;;;;;8.50;6.20;;;;;;;14.74;91.19;100576.81;1604029;88;21239;-78
2022/09/11 20:58:51;;;;;;;7.20;5.78;;;;;;;14.76;91.21;100574.96;1603941;87;21532;-78
2022/09/11 21:01:23;;;;;;;6.17;5.58;;;;;;;14.73;91.09;100568.53;1604035;88;21056;-78
2022/09/11 21:03:55;;;;;;;8.05;5.60;;;;;;;14.73;91.09;100568.53;1601903;87;21029;-78
2022/09/11 21:06:28;;;;;;;7.72;6.33;;;;;;;14.75;91.18;100573.73;1601720;87;21028;-78
2022/09/11 21:09:04;;;;;;;7.20;6.42;;;;;;;14.76;91.27;100583.34;1604837;87;22158;-77
2022/09/11 21:11:32;;;;;;;6.87;6.17;;;;;;;14.77;91.20;100586.36;1604029;88;20967;-78
2022/09/11 21:13:59;;;;;;;8.48;6.33;;;;;;;14.75;91.26;100581.19;1602041;87;21055;-78
2022/09/11 21:16:27;;;;;;;7.78;6.17;;;;;;;14.77;91.35;100578.00;1603614;88;21033;-78
2022/09/11 21:18:56;;;;;;;7.53;5.60;;;;;;;14.77;91.32;100581.97;1602072;87;21067;-78
2022/09/11 21:21:26;;;;;;;7.33;5.62;;;;;;;14.77;91.33;100581.97;1603209;88;21231;-78
2022/09/11 21:24:04;;;;;;;6.47;5.72;;;;;;;14.79;91.45;100587.14;1602524;87;21061;-78
2022/09/11 21:26:30;;;;;;;6.33;5.62;;;;;;;14.80;91.45;100588.84;1599500;87;21055;-78
2022/09/11 21:29:00;;;;;;;6.85;6.10;;;;;;;14.81;91.49;100592.73;1602253;87;21109;-78
2022/09/11 21:31:27;;;;;;;6.75;5.92;;;;;;;14.82;91.56;100593.11;1598012;87;21028;-78
2022/09/11 21:33:55;;;;;;;8.35;5.95;;;;;;;14.82;91.60;100591.79;1600048;87;21387;-79
2022/09/11 21:36:24;;;;;;;6.08;5.45;;;;;;;14.84;91.64;100590.41;1599892;87;21598;-78
2022/09/11 21:38:51;;;;;;;6.22;5.35;;;;;;;14.85;91.70;100585.03;1599833;87;21050;-79
2022/09/11 21:41:18;;;;;;;6.65;5.50;;;;;;;14.86;91.66;100586.76;1599903;87;21008;-78
2022/09/11 21:43:46;;;;;;;6.67;5.83;;;;;;;14.87;91.64;100588.45;1599610;87;21039;-78
2022/09/11 21:46:13;;;;;;;8.08;5.75;;;;;;;14.84;91.72;100583.34;1599865;87;21209;-78
2022/09/11 21:48:41;;;;;;;7.05;6.00;;;;;;;14.84;91.72;100583.34;1599682;87;21003;-79
2022/09/11 21:51:15;;;;;;;10.10;6.22;;;;;;;14.89;91.80;100592.34;1602009;88;21062;-79
2022/09/11 21:53:44;;;;;;;7.17;5.72;;;;;;;14.90;91.68;100597.53;1583722;88;21125;-78
2022/09/11 21:56:23;;;;;;;6.80;5.83;;;;;;;14.88;91.71;100601.17;1600236;87;21063;-78
2022/09/11 21:58:52;;;;;;;5.83;4.97;;;;;;;14.88;91.73;100602.05;1600336;87;21048;-78
2022/09/11 22:01:20;;;;;;;7.08;6.15;;;;;;;14.88;91.83;100592.81;1600054;87;21011;-78
2022/09/11 22:03:47;;;;;;;8.10;5.60;;;;;;;14.89;91.89;100597.63;1599667;87;21503;-78
2022/09/11 22:06:15;;;;;;;8.03;5.92;;;;;;;14.89;91.98;100589.70;1600143;87;21083;-79